Time;durP1;ratioP1;P1;durP2;ratioP2;P2;SDS_P1;SDS_P2;PMS_P1;PMS_P2;Temp;Humidity;BMP_temperature;BMP_pressure;BME280_temperature;BME280_humidity;BME280_pressure;Samples;Min_cycle;Max_cycle;Signal;HPM_P1;HPM_P2
2022/10/25 00:00:20;;;;;;;;;0.00;0.00;;;;;16.71;68.74;101037.03;5115425;27;45201;-68
2022/10/25 00:02:46;;;;;;;;;2.33;0.00;;;;;16.70;69.07;101040.63;5123850;27;50556;-69
2022/10/25 00:05:14;;;;;;;;;0.00;0.00;;;;;16.61;68.74;101030.66;5119777;27;45151;-70
2022/10/25 00:07:40;;;;;;;;;4.33;1.00;;;;;16.71;69.08;101059.53;5114823;27;45123;-69
2022/10/25 00:10:06;;;;;;;;;1.00;1.00;;;;;16.59;68.96;101033.34;5115102;27;45250;-69
2022/10/25 00:12:31;;;;;;;;;1.33;0.00;;;;;16.61;69.15;101030.66;5130573;27;45193;-70
2022/10/25 00:15:00;;;;;;;;;3.00;2.00;;;;;16.70;68.79;101055.00;5116983;27;67986;-69
2022/10/25 00:17:26;;;;;;;;;1.00;1.00;;;;;16.36;68.94;100997.25;5131249;27;45040;-71
2022/10/25 00:19:51;;;;;;;;;0.00;0.00;;;;;16.69;69.23;101055.00;5126271;27;44956;-71
2022/10/25 00:22:17;;;;;;;;;1.00;1.00;;;;;16.69;69.07;101057.69;5127384;27;48328;-74
2022/10/25 00:24:42;;;;;;;;;2.00;1.00;;;;;16.62;69.40;101040.56;5133719;27;51129;-73
2022/10/25 00:27:07;;;;;;;;;1.67;1.00;;;;;16.73;68.64;101056.84;5123473;27;62370;-72
2022/10/25 00:29:32;;;;;;;;;4.33;1.00;;;;;16.71;69.15;101056.84;5135841;27;45050;-70
2022/10/25 00:31:58;;;;;;;;;3.00;1.00;;;;;16.60;69.11;101039.66;5126268;27;45265;-72
2022/10/25 00:34:23;;;;;;;;;1.33;1.33;;;;;16.64;68.91;101040.59;5122289;27;61236;-72
2022/10/25 00:36:48;;;;;;;;;1.67;1.00;;;;;16.70;69.04;101057.72;5120701;27;44981;-72
2022/10/25 00:39:14;;;;;;;;;2.00;0.33;;;;;16.19;68.81;100972.88;5123175;27;58178;-70
2022/10/25 00:41:39;;;;;;;;;4.00;1.33;;;;;16.67;69.12;101062.19;5130062;27;45355;-68
2022/10/25 00:44:39;;;;;;;;;0.00;0.00;;;;;16.66;69.27;101055.88;5113156;27;46172;-69
2022/10/25 00:47:19;;;;;;;;;0.33;0.33;;;;;16.70;69.33;101056.81;5123180;27;45178;-69
2022/10/25 00:49:53;;;;;;;;;0.00;0.00;;;;;16.63;68.81;101044.16;5123667;27;45234;-73
2022/10/25 00:52:19;;;;;;;;;2.00;2.00;;;;;16.58;69.62;101044.13;5130352;27;45292;-68
2022/10/25 00:54:50;;;;;;;;;2.00;1.67;;;;;16.67;69.22;101062.19;5107706;27;45688;-72
2022/10/25 00:57:33;;;;;;;;;1.67;0.33;;;;;16.63;69.50;101060.34;5124276;27;45234;-73
2022/10/25 01:00:00;;;;;;;;;2.67;1.00;;;;;16.59;69.50;101054.94;5113946;27;45247;-74
2022/10/25 01:02:26;;;;;;;;;0.67;0.67;;;;;16.68;69.38;101075.69;5121325;27;45040;-69
2022/10/25 01:04:52;;;;;;;;;3.00;1.00;;;;;16.64;69.35;101070.25;5123223;27;45742;-73
2022/10/25 01:07:18;;;;;;;;;2.67;1.33;;;;;16.59;69.63;101062.13;5127334;27;45036;-70
2022/10/25 01:09:43;;;;;;;;;2.00;1.00;;;;;16.49;69.34;101049.47;5124855;27;45247;-73
2022/10/25 01:12:09;;;;;;;;;3.33;1.00;;;;;16.58;69.55;101057.63;5127788;27;45141;-69
2022/10/25 01:14:40;;;;;;;;;0.00;0.00;;;;;16.60;69.54;101072.03;5120478;27;45241;-70
2022/10/25 01:17:21;;;;;;;;;1.00;1.00;;;;;16.60;69.55;101063.94;5122794;27;45136;-69
2022/10/25 01:20:07;;;;;;;;;3.33;0.67;;;;;16.57;69.98;101067.50;5129569;27;45194;-69
2022/10/25 01:23:08;;;;;;;;;1.33;1.00;;;;;16.53;70.02;101068.41;5116346;27;45224;-69
2022/10/25 01:26:29;;;;;;;;;1.33;1.33;;;;;16.50;70.04;101067.44;5088119;27;45229;-73
2022/10/25 01:29:14;;;;;;;;;2.33;0.67;;;;;16.49;70.17;101071.94;5019161;28;45218;-72
2022/10/25 01:31:40;;;;;;;;;2.33;0.00;;;;;16.48;70.60;101071.94;5023266;28;45199;-72
2022/10/25 01:34:12;;;;;;;;;0.33;0.33;;;;;16.45;70.56;101072.84;5072666;27;45208;-70
2022/10/25 01:36:37;;;;;;;;;3.00;0.50;;;;;16.47;70.39;101060.25;5122243;27;45189;-70
2022/10/25 01:39:19;;;;;;;;;0.33;0.33;;;;;16.48;70.12;101067.47;5128686;27;45149;-72
2022/10/25 01:41:57;;;;;;;;;4.00;1.00;;;;;16.48;70.38;101061.16;5115240;27;45293;-71
2022/10/25 01:44:40;;;;;;;;;0.00;0.00;;;;;16.44;70.47;101060.22;5113843;27;45317;-72
2022/10/25 01:47:16;;;;;;;;;3.00;1.33;;;;;16.43;70.49;101055.72;5117429;27;45238;-70
2022/10/25 01:49:56;;;;;;;;;4.00;1.00;;;;;16.44;70.66;101064.72;5120353;27;45314;-71
2022/10/25 01:52:23;;;;;;;;;1.33;0.00;;;;;16.29;69.95;101042.16;5130706;27;45104;-68
2022/10/25 01:54:50;;;;;;;;;1.33;0.00;;;;;16.27;69.99;101034.91;5123275;27;45028;-68
2022/10/25 01:57:22;;;;;;;;;2.00;0.33;;;;;16.39;70.03;101057.50;5122980;27;45734;-69
2022/10/25 01:59:50;;;;;;;;;3.00;0.67;;;;;16.41;69.78;101054.81;5109095;27;45012;-69
2022/10/25 02:02:28;;;;;;;;;0.33;0.33;;;;;16.38;69.89;101068.28;5120628;27;45158;-69
2022/10/25 02:05:07;;;;;;;;;1.67;0.33;;;;;16.24;69.43;101038.50;5120001;27;45214;-70
2022/10/25 02:07:37;;;;;;;;;2.00;2.00;;;;;16.33;69.86;101053.84;5120041;27;48906;-70
2022/10/25 02:10:02;;;;;;;;;0.67;0.67;;;;;16.37;70.29;101061.97;5115650;27;44987;-72
2022/10/25 02:12:40;;;;;;;;;2.33;1.00;;;;;16.28;69.48;101034.03;5128700;27;45192;-70
2022/10/25 02:15:15;;;;;;;;;1.67;0.00;;;;;16.38;69.13;101047.63;5128062;27;45271;-71
2022/10/25 02:17:49;;;;;;;;;0.67;0.00;;;;;16.30;68.78;101045.72;5119938;27;45735;-68
2022/10/25 02:20:17;;;;;;;;;3.00;1.33;;;;;16.39;68.97;101062.88;5124356;27;45207;-68
2022/10/25 02:22:44;;;;;;;;;3.00;1.00;;;;;16.21;68.98;101033.09;5120397;27;44914;-71
2022/10/25 02:25:12;;;;;;;;;0.00;0.00;;;;;16.31;68.41;101061.03;5125326;27;44977;-69
2022/10/25 02:27:38;;;;;;;;;1.67;0.00;;;;;16.39;68.46;101070.97;5105431;27;45951;-69
2022/10/25 02:30:05;;;;;;;;;2.00;0.00;;;;;16.40;68.33;101070.09;5128313;27;45240;-68
2022/10/25 02:32:30;;;;;;;;;0.67;0.67;;;;;16.37;68.33;101070.06;5123407;27;45225;-70
2022/10/25 02:34:56;;;;;;;;;1.00;1.00;;;;;16.39;68.62;101068.28;5129141;27;45249;-68
2022/10/25 02:37:21;;;;;;;;;0.67;0.67;;;;;16.24;68.45;101046.59;5112831;27;57061;-70
2022/10/25 02:39:48;;;;;;;;;1.00;0.00;;;;;16.34;68.86;101066.44;5130459;27;57281;-69
2022/10/25 02:42:13;;;;;;;;;3.00;1.00;;;;;16.39;68.87;101070.09;5127195;27;45325;-69
2022/10/25 02:44:39;;;;;;;;;0.00;0.00;;;;;16.29;68.93;101061.03;5113277;27;44876;-69
2022/10/25 02:47:04;;;;;;;;;1.67;0.00;;;;;16.26;69.28;101043.91;5122984;27;45287;-68
2022/10/25 02:49:29;;;;;;;;;0.67;0.00;;;;;16.28;68.88;101055.63;5106220;27;45294;-70
2022/10/25 02:51:55;;;;;;;;;0.00;0.00;;;;;15.91;68.82;100988.84;5125589;27;46338;-70
2022/10/25 02:54:20;;;;;;;;;2.00;1.00;;;;;16.34;68.71;101063.75;5120164;27;45234;-68
2022/10/25 02:56:46;;;;;;;;;0.67;0.67;;;;;16.38;68.80;101071.88;5127929;27;45918;-69
2022/10/25 02:59:14;;;;;;;;;2.00;0.00;;;;;16.37;69.03;101061.09;5126933;27;45230;-71
2022/10/25 03:01:39;;;;;;;;;1.67;0.00;;;;;16.45;69.09;101074.59;5121425;27;44906;-70
2022/10/25 03:04:05;;;;;;;;;2.00;0.00;;;;;16.48;68.85;101066.53;5113737;27;45130;-72
2022/10/25 03:06:30;;;;;;;;;4.67;0.00;;;;;16.49;68.18;101062.97;5112180;27;45575;-69
2022/10/25 03:08:55;;;;;;;;;3.00;0.33;;;;;16.55;68.40;101068.41;5121398;27;44963;-69
2022/10/25 03:11:21;;;;;;;;;2.67;0.00;;;;;16.58;68.04;101071.09;5110296;27;50753;-69
2022/10/25 03:13:46;;;;;;;;;2.33;1.00;;;;;16.62;67.50;101080.16;5114752;27;45308;-69
2022/10/25 03:16:11;;;;;;;;;3.33;2.00;;;;;16.53;67.21;101062.06;5124243;27;46622;-70
2022/10/25 03:18:37;;;;;;;;;2.00;1.00;;;;;16.61;67.46;101068.44;5124130;27;45055;-69
2022/10/25 03:21:03;;;;;;;;;1.33;1.33;;;;;16.72;67.35;101079.31;5129674;27;45150;-69
2022/10/25 03:23:29;;;;;;;;;2.00;1.00;;;;;16.73;67.18;101073.94;5134104;27;44912;-69
2022/10/25 03:25:57;;;;;;;;;1.00;1.00;;;;;16.67;67.05;101071.19;5117709;27;45233;-71
2022/10/25 03:28:22;;;;;;;;;0.67;0.00;;;;;16.75;66.78;101085.63;5127786;27;45630;-70
2022/10/25 03:30:48;;;;;;;;;2.00;1.00;;;;;16.76;67.26;101079.34;5120179;27;45181;-68
2022/10/25 03:33:13;;;;;;;;;1.00;1.00;;;;;16.78;66.89;101082.06;5122757;27;45023;-72
2022/10/25 03:35:39;;;;;;;;;2.00;0.00;;;;;16.79;67.24;101088.34;5117976;27;61803;-70
2022/10/25 03:38:04;;;;;;;;;1.00;1.00;;;;;16.79;67.10;101094.63;5133550;27;45275;-70
2022/10/25 03:40:29;;;;;;;;;3.00;1.67;;;;;16.75;66.90;101076.63;5118530;27;45369;-69
2022/10/25 03:42:55;;;;;;;;;2.67;2.33;;;;;16.82;67.21;101094.66;5121403;27;45066;-68
2022/10/25 03:45:20;;;;;;;;;2.00;2.00;;;;;16.83;67.30;101091.06;5117696;27;45703;-73
2022/10/25 03:47:46;;;;;;;;;6.33;2.33;;;;;16.87;67.59;101105.53;5115032;27;45143;-69
2022/10/25 03:50:11;;;;;;;;;4.00;0.67;;;;;16.69;67.64;101076.59;5126078;27;44893;-72
2022/10/25 03:52:37;;;;;;;;;1.00;1.00;;;;;16.68;67.54;101063.97;5133667;27;45189;-71
2022/10/25 03:55:04;;;;;;;;;5.00;2.33;;;;;16.82;67.43;101091.97;5124788;27;45927;-69
2022/10/25 03:57:30;;;;;;;;;3.00;2.33;;;;;16.97;67.56;101103.78;5130079;27;45068;-68
2022/10/25 03:59:56;;;;;;;;;5.00;2.00;;;;;16.98;67.22;101110.97;5113127;27;45340;-68
2022/10/25 04:02:22;;;;;;;;;2.33;1.67;;;;;16.79;67.71;101073.03;5120687;27;45232;-72
2022/10/25 04:04:47;;;;;;;;;4.00;3.00;;;;;16.84;67.08;101073.97;5119240;27;45104;-70
2022/10/25 04:07:13;;;;;;;;;2.00;1.33;;;;;16.95;66.50;101082.19;5117371;27;45108;-72
2022/10/25 04:09:38;;;;;;;;;3.00;1.00;;;;;16.98;66.57;101101.09;5121083;27;45478;-71
2022/10/25 04:12:04;;;;;;;;;1.00;1.00;;;;;16.91;66.40;101089.34;5119963;27;45322;-69
2022/10/25 04:14:29;;;;;;;;;0.00;0.00;;;;;17.03;66.02;101110.13;5122036;27;45468;-70
2022/10/25 04:16:54;;;;;;;;;4.67;2.00;;;;;17.03;66.69;101101.13;5121400;27;50157;-69
2022/10/25 04:19:20;;;;;;;;;6.67;2.00;;;;;16.93;66.55;101092.97;5123071;27;45012;-70
2022/10/25 04:21:45;;;;;;;;;1.67;1.67;;;;;17.02;66.84;101107.41;5118460;27;45220;-72
2022/10/25 04:24:11;;;;;;;;;5.00;2.00;;;;;16.62;66.75;101042.38;5131178;27;45448;-70
2022/10/25 04:26:37;;;;;;;;;3.00;1.00;;;;;17.01;66.71;101113.69;5108015;27;44942;-70
2022/10/25 04:29:04;;;;;;;;;1.00;1.00;;;;;17.05;66.63;101111.03;5120463;27;45128;-71
2022/10/25 04:31:30;;;;;;;;;3.33;2.00;;;;;17.03;66.46;101109.22;5112651;27;45309;-73
2022/10/25 04:33:56;;;;;;;;;2.33;2.00;;;;;17.07;66.77;101111.91;5108492;27;46302;-71
2022/10/25 04:36:22;;;;;;;;;5.00;3.00;;;;;17.10;67.28;101120.03;5115676;27;45357;-71
2022/10/25 04:38:52;;;;;;;;;3.00;1.67;;;;;17.11;67.06;101111.06;5128406;27;45138;-68
2022/10/25 04:41:18;;;;;;;;;1.67;1.67;;;;;17.15;66.61;101117.38;5130440;27;45150;-69
2022/10/25 04:43:44;;;;;;;;;2.67;2.00;;;;;17.15;66.73;101105.69;5118068;27;45750;-72
2022/10/25 04:46:10;;;;;;;;;3.67;3.67;;;;;17.03;66.94;101082.22;5115987;27;45153;-72
2022/10/25 04:48:36;;;;;;;;;2.67;2.67;;;;;17.19;67.14;101111.09;5119088;27;45237;-68
2022/10/25 04:51:02;;;;;;;;;4.00;3.00;;;;;17.19;66.61;101113.81;5115406;27;45234;-71
2022/10/25 04:53:27;;;;;;;;;5.67;3.00;;;;;17.18;66.93;101109.28;5117775;27;45175;-71
2022/10/25 04:55:57;;;;;;;;;2.00;1.00;;;;;17.18;66.90;101120.09;5125855;27;45097;-73
2022/10/25 04:58:23;;;;;;;;;2.33;2.00;;;;;17.15;67.68;101120.06;5133666;27;44911;-69
2022/10/25 05:00:49;;;;;;;;;6.00;3.33;;;;;17.11;67.53;101118.25;5097212;27;45209;-72
2022/10/25 05:03:14;;;;;;;;;2.33;1.67;;;;;17.11;67.66;101129.06;5115631;27;45511;-70
2022/10/25 05:05:40;;;;;;;;;3.00;1.33;;;;;17.00;67.67;101112.78;5114876;27;45178;-72
2022/10/25 05:08:05;;;;;;;;;3.67;3.33;;;;;16.73;68.37;101068.53;5115724;27;45008;-72
2022/10/25 05:10:30;;;;;;;;;5.33;3.33;;;;;16.93;68.15;101108.25;5111009;27;45112;-70
2022/10/25 05:12:56;;;;;;;;;2.67;2.00;;;;;16.97;68.21;101109.19;5122962;27;46381;-70
2022/10/25 05:15:21;;;;;;;;;4.67;3.33;;;;;16.93;68.21;101101.06;5102871;27;45355;-70
2022/10/25 05:17:46;;;;;;;;;4.67;4.67;;;;;17.04;68.32;101120.03;5126331;27;45079;-69
2022/10/25 05:20:11;;;;;;;;;11.67;6.67;;;;;16.94;68.20;101110.06;5116999;27;57737;-70
2022/10/25 05:22:37;;;;;;;;;8.00;5.33;;;;;17.01;68.38;101121.78;5100490;27;47812;-71
2022/10/25 05:25:02;;;;;;;;;8.33;3.67;;;;;16.99;68.83;101127.16;5120832;27;45103;-69
2022/10/25 05:27:28;;;;;;;;;3.00;2.67;;;;;16.98;68.69;101127.16;5112917;27;45043;-71
2022/10/25 05:29:53;;;;;;;;;4.00;2.33;;;;;16.57;68.46;101045.03;5118069;27;50007;-71
2022/10/25 05:32:18;;;;;;;;;6.33;4.67;;;;;16.99;68.67;101121.78;5109954;27;45722;-68
2022/10/25 05:34:44;;;;;;;;;14.00;11.00;;;;;16.98;68.59;101109.19;5103687;27;50779;-70
2022/10/25 05:37:10;;;;;;;;;7.67;5.67;;;;;17.10;68.26;101133.53;5122230;27;45190;-70
2022/10/25 05:39:36;;;;;;;;;3.00;3.00;;;;;17.08;67.81;101127.25;5114994;27;45479;-72
2022/10/25 05:42:05;;;;;;;;;3.67;3.67;;;;;17.00;68.25;101128.09;5124854;27;45406;-73
2022/10/25 05:44:30;;;;;;;;;11.33;5.00;;;;;16.89;68.57;101106.41;5109075;27;45112;-73
2022/10/25 05:46:55;;;;;;;;;4.00;2.00;;;;;17.06;68.18;101131.72;5125340;27;45264;-69
2022/10/25 05:49:21;;;;;;;;;8.00;8.00;;;;;16.98;68.50;101122.69;5126499;27;45286;-72
2022/10/25 05:51:46;;;;;;;;;8.67;5.00;;;;;17.04;68.44;101125.44;5121658;27;45609;-68
2022/10/25 05:54:14;;;;;;;;;5.67;4.00;;;;;17.01;68.98;101138.91;5117273;27;67356;-69
2022/10/25 05:56:41;;;;;;;;;3.00;3.00;;;;;16.57;68.65;101056.72;5112611;27;45008;-68
2022/10/25 05:59:09;;;;;;;;;5.33;4.00;;;;;16.98;68.76;101130.78;5120606;27;45134;-69
2022/10/25 06:01:37;;;;;;;;;6.00;3.00;;;;;16.99;69.15;101131.69;5106706;27;45439;-69
2022/10/25 06:04:03;;;;;;;;;5.00;5.00;;;;;16.87;68.95;101114.50;5112844;27;45136;-69
2022/10/25 06:06:28;;;;;;;;;3.00;1.67;;;;;16.78;69.58;101109.03;5117069;27;45126;-69
2022/10/25 06:08:58;;;;;;;;;5.00;3.67;;;;;16.69;69.14;101100.88;5121782;27;49297;-70
2022/10/25 06:11:25;;;;;;;;;6.33;4.00;;;;;16.64;69.71;101099.94;5110335;27;45589;-73
2022/10/25 06:13:50;;;;;;;;;4.67;3.33;;;;;16.78;70.16;101136.03;5124550;27;45060;-70
2022/10/25 06:16:18;;;;;;;;;9.33;7.67;;;;;16.71;70.14;101124.28;5110418;27;45012;-70
2022/10/25 06:18:44;;;;;;;;;41.75;33.00;;;;;16.79;70.08;101132.41;5113665;27;45313;-71
2022/10/25 06:21:10;;;;;;;;;7.67;7.33;;;;;16.84;70.07;101136.03;5115768;27;45202;-73
2022/10/25 06:23:37;;;;;;;;;13.00;11.00;;;;;16.74;70.09;101107.19;5121812;27;45194;-72
2022/10/25 06:26:08;;;;;;;;;7.67;7.33;;;;;16.90;70.02;101141.53;5111766;27;44980;-73
2022/10/25 06:28:34;;;;;;;;;5.00;4.00;;;;;16.93;69.31;101137.94;5111615;27;45171;-70
2022/10/25 06:31:01;;;;;;;;;5.00;4.00;;;;;16.88;69.22;101131.63;5104674;27;45728;-72
2022/10/25 06:33:27;;;;;;;;;3.00;3.00;;;;;16.93;69.39;101143.34;5116077;27;45151;-70
2022/10/25 06:35:57;;;;;;;;;7.33;7.33;;;;;16.90;69.06;101141.53;5112582;27;44922;-73
2022/10/25 06:38:23;;;;;;;;;3.67;3.33;;;;;16.92;69.22;101150.53;5114648;27;45044;-70
2022/10/25 06:40:48;;;;;;;;;5.33;3.00;;;;;16.89;69.28;101149.59;5100557;27;45323;-72
2022/10/25 06:43:13;;;;;;;;;5.00;4.00;;;;;16.90;69.57;101155.00;5103211;27;45327;-69
2022/10/25 06:45:40;;;;;;;;;4.00;4.00;;;;;16.54;68.94;101091.75;5111351;27;45782;-72
2022/10/25 06:48:05;;;;;;;;;6.67;6.33;;;;;16.86;69.22;101144.19;5123456;27;45113;-70
2022/10/25 06:50:30;;;;;;;;;3.67;3.67;;;;;16.78;69.14;101136.03;5119549;27;62444;-73
2022/10/25 06:52:56;;;;;;;;;6.33;4.33;;;;;16.80;69.96;101141.44;5122715;27;55757;-70
2022/10/25 06:55:21;;;;;;;;;5.67;3.00;;;;;16.84;69.09;101140.53;5116700;27;46299;-69
2022/10/25 06:57:47;;;;;;;;;6.67;4.67;;;;;17.00;68.83;101164.09;5124171;27;45202;-70
2022/10/25 07:00:12;;;;;;;;;6.33;6.33;;;;;16.98;68.87;101155.06;5129751;27;62618;-69
2022/10/25 07:02:37;;;;;;;;;4.00;3.00;;;;;17.05;68.48;101159.59;5114835;27;45026;-70
2022/10/25 07:05:03;;;;;;;;;5.67;3.67;;;;;17.05;68.47;101154.22;5122903;27;45144;-71
2022/10/25 07:07:28;;;;;;;;;3.00;3.00;;;;;17.11;67.93;101164.16;5125392;27;44987;-67
2022/10/25 07:09:54;;;;;;;;;3.33;2.00;;;;;16.85;67.59;101124.41;5110836;27;45320;-69
2022/10/25 07:12:19;;;;;;;;;11.67;6.67;;;;;17.15;68.22;101171.38;5110294;27;55525;-70
2022/10/25 07:14:44;;;;;;;;;8.67;4.00;;;;;17.09;67.55;101169.56;5113995;27;45194;-71
2022/10/25 07:17:10;;;;;;;;;11.33;3.33;;;;;17.15;68.00;101170.47;5107302;27;46610;-71
2022/10/25 07:19:35;;;;;;;;;5.67;4.33;;;;;17.06;67.99;101155.09;5111287;27;46082;-71
2022/10/25 07:22:00;;;;;;;;;7.67;5.00;;;;;17.06;67.89;101145.22;5109798;27;45119;-71
2022/10/25 07:24:26;;;;;;;;;9.00;6.33;;;;;17.03;68.07;101144.31;5121116;27;45461;-70
2022/10/25 07:26:51;;;;;;;;;2.00;2.00;;;;;17.08;67.47;101156.03;5114124;27;45594;-72
2022/10/25 07:29:16;;;;;;;;;3.00;3.00;;;;;17.18;67.29;101187.59;5111618;27;61939;-69
2022/10/25 07:31:43;;;;;;;;;4.67;2.33;;;;;16.79;67.51;101115.31;5109525;27;45584;-70
2022/10/25 07:34:12;;;;;;;;;5.67;3.00;;;;;17.09;67.34;101168.63;5112797;27;45850;-69
2022/10/25 07:36:37;;;;;;;;;9.33;6.00;;;;;17.06;67.50;101166.81;5110462;27;46795;-70
2022/10/25 07:39:02;;;;;;;;;8.00;3.33;;;;;17.03;67.75;101164.09;5110320;27;54718;-71
2022/10/25 07:41:28;;;;;;;;;5.00;4.00;;;;;17.16;67.73;101188.47;5118228;27;44995;-72
2022/10/25 07:43:54;;;;;;;;;4.67;3.33;;;;;17.17;67.75;101192.97;5113537;27;45507;-70
2022/10/25 07:46:19;;;;;;;;;5.00;4.00;;;;;17.04;67.85;101167.69;5106269;27;45107;-71
2022/10/25 07:48:45;;;;;;;;;1.00;1.00;;;;;17.14;67.44;101199.25;5110901;27;45201;-71
2022/10/25 07:51:13;;;;;;;;;6.33;3.00;;;;;16.73;67.81;101125.19;5106847;27;45335;-70
2022/10/25 07:53:39;;;;;;;;;2.00;2.00;;;;;17.12;67.92;101191.13;5114632;27;45327;-71
2022/10/25 07:56:05;;;;;;;;;7.67;3.33;;;;;17.10;67.86;101192.94;5114727;27;45401;-71
2022/10/25 07:58:31;;;;;;;;;8.67;5.67;;;;;17.05;67.69;101183.91;5108658;27;46608;-70
2022/10/25 08:01:01;;;;;;;;;6.67;4.33;;;;;17.16;67.74;101193.88;5087597;27;45541;-71
2022/10/25 08:03:26;;;;;;;;;3.00;2.33;;;;;17.11;67.50;101181.25;5120657;27;45234;-70
2022/10/25 08:05:52;;;;;;;;;5.33;4.67;;;;;17.15;67.46;101178.56;5114737;27;48276;-71
2022/10/25 08:08:18;;;;;;;;;6.00;4.00;;;;;17.17;67.36;101172.28;5099004;27;46021;-70
2022/10/25 08:10:44;;;;;;;;;10.00;5.00;;;;;17.13;66.52;101163.25;5112721;27;45239;-72
2022/10/25 08:13:10;;;;;;;;;8.33;4.33;;;;;17.35;66.53;101197.59;5114910;27;45105;-72
2022/10/25 08:15:35;;;;;;;;;6.00;3.00;;;;;17.34;66.05;101183.19;5115067;27;45242;-71
2022/10/25 08:18:02;;;;;;;;;42.75;35.50;;;;;17.35;66.12;101181.38;5114127;27;45126;-73
2022/10/25 08:20:28;;;;;;;;;11.67;7.00;;;;;17.52;65.50;101184.16;5114028;27;44942;-72
2022/10/25 08:22:58;;;;;;;;;4.00;3.00;;;;;17.57;65.57;101186.00;5114368;27;45160;-73
2022/10/25 08:25:24;;;;;;;;;5.67;5.00;;;;;17.63;65.32;101186.00;5113815;27;44994;-71
2022/10/25 08:27:50;;;;;;;;;4.33;3.00;;;;;17.69;65.00;101179.75;5113535;27;45345;-71
2022/10/25 08:30:15;;;;;;;;;3.67;3.33;;;;;17.67;64.47;101176.16;5122566;27;45447;-70
2022/10/25 08:32:41;;;;;;;;;3.00;3.00;;;;;17.60;63.97;101166.19;5116032;27;45011;-70
2022/10/25 08:35:06;;;;;;;;;5.00;3.00;;;;;17.64;63.92;101173.44;5115301;27;45050;-70
2022/10/25 08:37:32;;;;;;;;;6.67;3.00;;;;;17.52;64.16;101149.94;5114353;27;45178;-70
2022/10/25 08:39:57;;;;;;;;;5.67;3.67;;;;;17.68;63.68;101178.81;5112635;27;45001;-70
2022/10/25 08:42:55;;;;;;;;;8.00;6.00;;;;;17.67;64.03;101165.34;5114657;27;45252;-70
2022/10/25 08:45:25;;;;;;;;;6.00;4.00;;;;;17.56;64.06;101143.66;5080884;27;45232;-71
2022/10/25 08:47:55;;;;;;;;;16.67;4.67;;;;;17.78;63.81;101174.38;5114563;27;45655;-70
2022/10/25 08:50:36;;;;;;;;;11.00;8.00;;;;;17.85;63.80;101178.91;5114833;27;45237;-70
2022/10/25 08:53:07;;;;;;;;;10.33;8.67;;;;;17.88;63.32;101163.63;5112416;27;45340;-71
2022/10/25 08:55:41;;;;;;;;;9.33;8.00;;;;;17.96;62.88;101183.47;5108326;27;45172;-71
2022/10/25 08:58:13;;;;;;;;;3.00;2.00;;;;;17.92;61.63;101169.06;5110551;27;45760;-71
2022/10/25 09:00:39;;;;;;;;;5.33;3.67;;;;;17.77;61.10;101141.91;5110295;27;46130;-70
2022/10/25 09:03:13;;;;;;;;;3.33;3.00;;;;;17.79;61.38;101151.84;5111195;27;45137;-72
2022/10/25 09:05:44;;;;;;;;;4.67;3.33;;;;;17.95;61.70;101173.56;5113761;27;46306;-70
2022/10/25 09:08:33;;;;;;;;;7.33;7.00;;;;;17.97;61.04;101178.06;5111955;27;45249;-70
2022/10/25 09:11:32;;;;;;;;;8.33;5.67;;;;;17.95;60.38;101176.25;5120933;27;45102;-70
2022/10/25 09:14:21;;;;;;;;;3.00;3.00;;;;;17.95;60.40;101184.38;5114012;27;45209;-70
2022/10/25 09:17:03;;;;;;;;;4.00;3.00;;;;;17.94;59.89;101188.00;5106006;27;45309;-70
2022/10/25 09:19:43;;;;;;;;;1.00;1.00;;;;;17.91;59.57;101182.56;5111031;27;45100;-70
2022/10/25 09:22:18;;;;;;;;;5.33;3.00;;;;;17.74;59.92;101150.06;5120453;27;45064;-70
2022/10/25 09:24:59;;;;;;;;;3.33;1.00;;;;;17.90;59.93;101172.63;5111878;27;45022;-70
2022/10/25 09:27:38;;;;;;;;;1.00;1.00;;;;;17.75;60.26;101139.25;5112619;27;45369;-70
2022/10/25 09:30:12;;;;;;;;;1.33;1.33;;;;;17.99;60.08;101162.75;5109089;27;45453;-71
2022/10/25 09:32:59;;;;;;;;;2.67;2.67;;;;;18.05;59.71;101170.00;5131755;27;45093;-70
2022/10/25 09:35:39;;;;;;;;;7.67;3.00;;;;;17.92;59.23;101142.03;5109829;27;44908;-71
2022/10/25 09:38:21;;;;;;;;;2.00;2.00;;;;;18.17;59.24;101169.13;5110138;27;45143;-70
2022/10/25 09:41:09;;;;;;;;;5.00;4.00;;;;;18.23;58.86;101170.03;5107435;27;45633;-70
2022/10/25 09:43:41;;;;;;;;;3.00;3.00;;;;;18.31;58.36;101163.72;5106248;27;45111;-71
2022/10/25 09:46:19;;;;;;;;;6.33;4.67;;;;;18.37;58.24;101156.50;5112999;27;45164;-71
2022/10/25 09:48:57;;;;;;;;;3.67;3.00;;;;;18.48;58.05;101148.41;5127632;27;45120;-70
2022/10/25 09:51:45;;;;;;;;;3.67;3.00;;;;;18.52;57.86;101135.78;5111636;27;45567;-69
2022/10/25 09:54:21;;;;;;;;;4.67;4.33;;;;;18.62;57.79;101136.69;5109492;27;46230;-69
2022/10/25 09:56:47;;;;;;;;;3.33;3.00;;;;;18.73;57.20;101152.00;5101059;27;45332;-70
2022/10/25 09:59:14;;;;;;;;;6.67;4.00;;;;;18.72;57.12;101146.59;5103139;27;45220;-71
2022/10/25 10:01:40;;;;;;;;;5.33;3.33;;;;;18.73;56.93;101135.75;5107702;27;45276;-71
2022/10/25 10:04:33;;;;;;;;;0.00;0.00;;;;;18.58;56.75;101096.09;5102069;27;45350;-70
2022/10/25 10:07:08;;;;;;;;;5.67;5.67;;;;;18.88;56.66;101151.13;5102842;27;45193;-70
2022/10/25 10:09:37;;;;;;;;;4.33;2.00;;;;;18.88;56.28;101152.94;5087642;27;46227;-70
2022/10/25 10:12:05;;;;;;;;;2.00;1.00;;;;;18.76;56.33;101126.75;5104377;27;45771;-71
2022/10/25 10:14:49;;;;;;;;;5.33;3.00;;;;;18.87;56.63;101143.88;5097632;27;45243;-70
2022/10/25 10:17:17;;;;;;;;;5.00;2.00;;;;;19.00;56.36;101142.06;5112071;27;45190;-71
2022/10/25 10:19:43;;;;;;;;;4.00;3.33;;;;;19.04;56.14;101129.41;5114891;27;45233;-71
2022/10/25 10:22:14;;;;;;;;;6.33;5.33;;;;;19.07;55.94;101113.16;5123913;27;45950;-70
2022/10/25 10:24:46;;;;;;;;;6.00;5.00;;;;;19.37;55.26;101141.97;5125447;27;45056;-71
2022/10/25 10:27:20;;;;;;;;;1.67;1.00;;;;;19.38;55.13;101132.03;5126856;27;45124;-71
2022/10/25 10:29:57;;;;;;;;;4.67;4.00;;;;;19.48;55.20;101136.50;5126649;27;45030;-70
2022/10/25 10:32:33;;;;;;;;;2.67;2.67;;;;;19.32;54.97;101105.88;5120651;27;45710;-71
2022/10/25 10:35:01;;;;;;;;;5.33;3.33;;;;;19.59;55.15;101139.19;5121217;27;45156;-71
2022/10/25 10:37:28;;;;;;;;;4.67;4.67;;;;;19.48;54.90;101106.69;5130865;27;44947;-71
2022/10/25 10:40:21;;;;;;;;;2.33;1.33;;;;;19.64;54.45;101137.34;5130508;27;45130;-70
2022/10/25 10:42:46;;;;;;;;;3.00;3.00;;;;;19.54;54.52;101125.63;5128248;27;45412;-71
2022/10/25 10:45:17;;;;;;;;;6.33;3.00;;;;;19.66;54.81;101149.06;5113453;27;44923;-70
2022/10/25 10:47:48;;;;;;;;;3.67;3.67;;;;;19.73;54.62;101134.56;5128480;27;45087;-71
2022/10/25 10:50:19;;;;;;;;;2.67;2.33;;;;;19.77;54.67;101125.56;5113882;27;45381;-70
2022/10/25 10:52:46;;;;;;;;;3.67;3.00;;;;;19.78;54.90;101121.03;5129583;27;46480;-71
2022/10/25 10:55:23;;;;;;;;;3.00;1.00;;;;;19.70;55.20;101108.38;5129386;27;45102;-71
2022/10/25 10:57:51;;;;;;;;;3.00;2.00;;;;;19.85;55.24;101122.81;5112753;27;45105;-73
2022/10/25 11:00:22;;;;;;;;;3.67;2.00;;;;;19.91;55.19;101113.72;5118552;27;45091;-72
2022/10/25 11:02:47;;;;;;;;;3.67;3.00;;;;;19.85;55.26;101095.69;5124495;27;47261;-71
2022/10/25 11:05:29;;;;;;;;;5.00;2.00;;;;;19.91;55.65;101116.44;5116203;27;45714;-70
2022/10/25 11:08:02;;;;;;;;;6.00;4.67;;;;;19.98;55.84;101108.25;5114886;27;44925;-71
2022/10/25 11:10:28;;;;;;;;;6.67;4.00;;;;;20.08;55.44;101095.53;5109416;27;45065;-71
2022/10/25 11:13:27;;;;;;;;;4.67;3.67;;;;;20.12;55.28;101093.69;5128693;27;45222;-70
2022/10/25 11:16:26;;;;;;;;;5.33;4.33;;;;;20.17;55.54;101099.97;5072102;27;45205;-72
2022/10/25 11:19:09;;;;;;;;;5.00;5.00;;;;;20.09;54.80;101085.56;5127775;27;44995;-71
2022/10/25 11:21:53;;;;;;;;;6.67;5.00;;;;;20.20;54.90;101091.81;5112152;27;45098;-71
2022/10/25 11:24:43;;;;;;;;;6.00;6.00;;;;;20.17;54.90;101086.41;5112293;27;45642;-71
2022/10/25 11:27:17;;;;;;;;;3.00;3.00;;;;;20.20;55.19;101091.81;5096453;27;45162;-72
2022/10/25 11:29:58;;;;;;;;;4.67;4.00;;;;;20.15;55.13;101072.88;5123363;27;44927;-70
2022/10/25 11:33:01;;;;;;;;;10.00;6.67;;;;;20.22;54.95;101074.59;5106607;27;45449;-71
2022/10/25 11:35:53;;;;;;;;;3.00;3.00;;;;;20.28;54.83;101084.53;5115292;27;46417;-71